sensor_id;sensor_type;location;lat;lon;timestamp;temperature;humidity
3850;DHT22;1940;51.052;13.678;2023-03-19T00:01:06;8.90;68.00
3850;DHT22;1940;51.052;13.678;2023-03-19T00:03:32;8.80;67.90
3850;DHT22;1940;51.052;13.678;2023-03-19T00:05:58;8.80;68.00
3850;DHT22;1940;51.052;13.678;2023-03-19T00:08:25;8.80;68.00
3850;DHT22;1940;51.052;13.678;2023-03-19T00:10:51;8.80;68.00
3850;DHT22;1940;51.052;13.678;2023-03-19T00:13:17;8.80;67.90
3850;DHT22;1940;51.052;13.678;2023-03-19T00:15:43;8.80;68.00
3850;DHT22;1940;51.052;13.678;2023-03-19T00:18:08;8.80;68.00
3850;DHT22;1940;51.052;13.678;2023-03-19T00:20:34;8.90;67.90
3850;DHT22;1940;51.052;13.678;2023-03-19T00:23:00;8.90;67.80
3850;DHT22;1940;51.052;13.678;2023-03-19T00:25:25;8.90;68.00
3850;DHT22;1940;51.052;13.678;2023-03-19T00:27:51;8.90;68.00
3850;DHT22;1940;51.052;13.678;2023-03-19T00:30:18;8.90;67.80
3850;DHT22;1940;51.052;13.678;2023-03-19T00:32:44;8.90;67.80
3850;DHT22;1940;51.052;13.678;2023-03-19T00:35:10;8.90;67.90
3850;DHT22;1940;51.052;13.678;2023-03-19T00:37:35;8.90;68.00
3850;DHT22;1940;51.052;13.678;2023-03-19T00:40:02;8.80;68.00
3850;DHT22;1940;51.052;13.678;2023-03-19T00:42:29;8.80;67.90
3850;DHT22;1940;51.052;13.678;2023-03-19T00:44:54;8.80;68.00
3850;DHT22;1940;51.052;13.678;2023-03-19T00:47:20;8.80;67.80
3850;DHT22;1940;51.052;13.678;2023-03-19T00:49:45;8.80;67.90
3850;DHT22;1940;51.052;13.678;2023-03-19T00:52:11;8.70;68.10
3850;DHT22;1940;51.052;13.678;2023-03-19T00:54:36;8.70;68.30
3850;DHT22;1940;51.052;13.678;2023-03-19T00:57:02;8.70;68.40
3850;DHT22;1940;51.052;13.678;2023-03-19T00:59:27;8.60;68.50
3850;DHT22;1940;51.052;13.678;2023-03-19T01:01:52;8.70;68.20
3850;DHT22;1940;51.052;13.678;2023-03-19T01:04:18;8.60;68.50
3850;DHT22;1940;51.052;13.678;2023-03-19T01:06:44;8.60;68.60
3850;DHT22;1940;51.052;13.678;2023-03-19T01:09:09;8.60;68.70
3850;DHT22;1940;51.052;13.678;2023-03-19T01:11:35;8.60;68.70
3850;DHT22;1940;51.052;13.678;2023-03-19T01:14:01;8.60;68.50
3850;DHT22;1940;51.052;13.678;2023-03-19T01:16:27;8.50;68.60
3850;DHT22;1940;51.052;13.678;2023-03-19T01:18:52;8.50;68.60
3850;DHT22;1940;51.052;13.678;2023-03-19T01:21:18;8.60;68.50
3850;DHT22;1940;51.052;13.678;2023-03-19T01:23:44;8.60;68.40
3850;DHT22;1940;51.052;13.678;2023-03-19T01:26:09;8.60;68.40
3850;DHT22;1940;51.052;13.678;2023-03-19T01:28:36;8.60;68.20
3850;DHT22;1940;51.052;13.678;2023-03-19T01:31:05;8.60;68.20
3850;DHT22;1940;51.052;13.678;2023-03-19T01:33:31;8.60;68.20
3850;DHT22;1940;51.052;13.678;2023-03-19T01:35:58;8.60;68.20
3850;DHT22;1940;51.052;13.678;2023-03-19T01:38:27;8.60;68.40
3850;DHT22;1940;51.052;13.678;2023-03-19T01:40:52;8.60;68.40
3850;DHT22;1940;51.052;13.678;2023-03-19T01:43:23;8.50;68.50
3850;DHT22;1940;51.052;13.678;2023-03-19T01:45:50;8.60;68.30
3850;DHT22;1940;51.052;13.678;2023-03-19T01:51:04;8.50;68.50
3850;DHT22;1940;51.052;13.678;2023-03-19T01:53:33;8.50;68.60
3850;DHT22;1940;51.052;13.678;2023-03-19T01:56:03;8.50;68.90
3850;DHT22;1940;51.052;13.678;2023-03-19T01:58:29;8.50;68.70
3850;DHT22;1940;51.052;13.678;2023-03-19T02:00:56;8.50;68.90
3850;DHT22;1940;51.052;13.678;2023-03-19T02:03:22;8.40;69.00
3850;DHT22;1940;51.052;13.678;2023-03-19T02:05:49;8.40;69.10
3850;DHT22;1940;51.052;13.678;2023-03-19T02:08:19;8.40;69.00
3850;DHT22;1940;51.052;13.678;2023-03-19T02:10:47;8.40;69.10
3850;DHT22;1940;51.052;13.678;2023-03-19T02:13:13;8.40;69.10
3850;DHT22;1940;51.052;13.678;2023-03-19T02:15:39;8.40;69.00
3850;DHT22;1940;51.052;13.678;2023-03-19T02:18:05;8.40;69.00
3850;DHT22;1940;51.052;13.678;2023-03-19T02:20:41;8.40;69.10
3850;DHT22;1940;51.052;13.678;2023-03-19T02:23:36;8.30;69.10
3850;DHT22;1940;51.052;13.678;2023-03-19T02:28:32;8.20;69.30
3850;DHT22;1940;51.052;13.678;2023-03-19T02:30:58;8.20;69.30
3850;DHT22;1940;51.052;13.678;2023-03-19T02:33:24;8.20;69.30
3850;DHT22;1940;51.052;13.678;2023-03-19T02:35:51;8.20;69.40
3850;DHT22;1940;51.052;13.678;2023-03-19T02:38:17;8.30;69.20
3850;DHT22;1940;51.052;13.678;2023-03-19T02:40:53;8.20;69.20
3850;DHT22;1940;51.052;13.678;2023-03-19T02:43:20;8.20;69.30
3850;DHT22;1940;51.052;13.678;2023-03-19T02:45:46;8.20;69.30
3850;DHT22;1940;51.052;13.678;2023-03-19T02:48:11;8.20;69.50
3850;DHT22;1940;51.052;13.678;2023-03-19T02:50:37;8.20;69.10
3850;DHT22;1940;51.052;13.678;2023-03-19T02:53:03;8.20;69.10
3850;DHT22;1940;51.052;13.678;2023-03-19T02:55:28;8.20;69.10
3850;DHT22;1940;51.052;13.678;2023-03-19T02:57:54;8.20;69.20
3850;DHT22;1940;51.052;13.678;2023-03-19T03:00:19;8.20;68.90
3850;DHT22;1940;51.052;13.678;2023-03-19T03:02:45;8.20;69.20
3850;DHT22;1940;51.052;13.678;2023-03-19T03:05:11;8.20;69.30
3850;DHT22;1940;51.052;13.678;2023-03-19T03:07:37;8.20;69.40
3850;DHT22;1940;51.052;13.678;2023-03-19T03:10:05;8.20;69.40
3850;DHT22;1940;51.052;13.678;2023-03-19T03:12:31;8.20;69.10
3850;DHT22;1940;51.052;13.678;2023-03-19T03:14:56;8.20;69.10
3850;DHT22;1940;51.052;13.678;2023-03-19T03:17:22;8.20;69.10
3850;DHT22;1940;51.052;13.678;2023-03-19T03:19:48;8.30;69.20
3850;DHT22;1940;51.052;13.678;2023-03-19T03:22:14;8.20;69.00
3850;DHT22;1940;51.052;13.678;2023-03-19T03:24:39;8.20;69.30
3850;DHT22;1940;51.052;13.678;2023-03-19T03:27:05;8.20;69.40
3850;DHT22;1940;51.052;13.678;2023-03-19T03:29:31;8.10;69.60
3850;DHT22;1940;51.052;13.678;2023-03-19T03:31:56;8.10;69.40
3850;DHT22;1940;51.052;13.678;2023-03-19T03:34:22;8.10;69.40
3850;DHT22;1940;51.052;13.678;2023-03-19T03:36:47;8.10;69.40
3850;DHT22;1940;51.052;13.678;2023-03-19T03:39:13;8.10;69.50
3850;DHT22;1940;51.052;13.678;2023-03-19T03:41:38;8.10;69.50
3850;DHT22;1940;51.052;13.678;2023-03-19T03:44:04;8.10;69.30
3850;DHT22;1940;51.052;13.678;2023-03-19T03:46:30;8.00;69.50
3850;DHT22;1940;51.052;13.678;2023-03-19T03:48:55;8.00;69.70
3850;DHT22;1940;51.052;13.678;2023-03-19T03:51:21;8.00;69.70
3850;DHT22;1940;51.052;13.678;2023-03-19T03:53:47;8.00;69.80
3850;DHT22;1940;51.052;13.678;2023-03-19T03:56:12;8.00;69.50
3850;DHT22;1940;51.052;13.678;2023-03-19T03:58:38;8.00;69.50
3850;DHT22;1940;51.052;13.678;2023-03-19T04:01:04;8.10;69.40
3850;DHT22;1940;51.052;13.678;2023-03-19T04:03:30;8.00;69.40
3850;DHT22;1940;51.052;13.678;2023-03-19T04:05:55;8.00;69.50
3850;DHT22;1940;51.052;13.678;2023-03-19T04:08:21;8.00;69.40
3850;DHT22;1940;51.052;13.678;2023-03-19T04:10:47;8.00;69.50
3850;DHT22;1940;51.052;13.678;2023-03-19T04:13:13;8.00;69.50
3850;DHT22;1940;51.052;13.678;2023-03-19T04:15:41;7.90;69.50
3850;DHT22;1940;51.052;13.678;2023-03-19T04:18:07;7.90;69.60
3850;DHT22;1940;51.052;13.678;2023-03-19T04:20:33;7.90;69.40
3850;DHT22;1940;51.052;13.678;2023-03-19T04:22:58;7.90;69.70
3850;DHT22;1940;51.052;13.678;2023-03-19T04:25:24;7.90;69.50
3850;DHT22;1940;51.052;13.678;2023-03-19T04:27:50;7.90;69.30
3850;DHT22;1940;51.052;13.678;2023-03-19T04:30:16;7.90;69.20
3850;DHT22;1940;51.052;13.678;2023-03-19T04:32:42;7.90;69.30
3850;DHT22;1940;51.052;13.678;2023-03-19T04:35:08;8.00;69.10
3850;DHT22;1940;51.052;13.678;2023-03-19T04:37:34;8.00;69.10
3850;DHT22;1940;51.052;13.678;2023-03-19T04:39:59;8.00;69.20
3850;DHT22;1940;51.052;13.678;2023-03-19T04:42:25;8.00;69.10
3850;DHT22;1940;51.052;13.678;2023-03-19T04:44:51;7.90;69.20
3850;DHT22;1940;51.052;13.678;2023-03-19T04:47:16;7.90;69.30
3850;DHT22;1940;51.052;13.678;2023-03-19T04:49:42;7.90;69.20
3850;DHT22;1940;51.052;13.678;2023-03-19T04:52:08;7.90;69.50
3850;DHT22;1940;51.052;13.678;2023-03-19T04:54:33;7.80;69.40
3850;DHT22;1940;51.052;13.678;2023-03-19T04:56:59;7.80;69.50
3850;DHT22;1940;51.052;13.678;2023-03-19T04:59:25;7.80;69.40
3850;DHT22;1940;51.052;13.678;2023-03-19T05:01:51;7.70;69.40
3850;DHT22;1940;51.052;13.678;2023-03-19T05:04:17;7.70;69.50
3850;DHT22;1940;51.052;13.678;2023-03-19T05:06:43;7.70;69.50
3850;DHT22;1940;51.052;13.678;2023-03-19T05:09:08;7.70;69.30
3850;DHT22;1940;51.052;13.678;2023-03-19T05:11:34;7.60;69.50
3850;DHT22;1940;51.052;13.678;2023-03-19T05:14:00;7.60;69.70
3850;DHT22;1940;51.052;13.678;2023-03-19T05:16:25;7.50;69.90
3850;DHT22;1940;51.052;13.678;2023-03-19T05:18:51;7.50;70.00
3850;DHT22;1940;51.052;13.678;2023-03-19T05:21:17;7.50;69.90
3850;DHT22;1940;51.052;13.678;2023-03-19T05:23:42;7.60;70.00
3850;DHT22;1940;51.052;13.678;2023-03-19T05:26:08;7.50;70.00
3850;DHT22;1940;51.052;13.678;2023-03-19T05:28:34;7.60;70.00
3850;DHT22;1940;51.052;13.678;2023-03-19T05:30:59;7.60;70.00
3850;DHT22;1940;51.052;13.678;2023-03-19T05:33:25;7.60;70.10
3850;DHT22;1940;51.052;13.678;2023-03-19T05:35:51;7.60;70.20
3850;DHT22;1940;51.052;13.678;2023-03-19T05:38:17;7.60;70.20
3850;DHT22;1940;51.052;13.678;2023-03-19T05:40:43;7.60;70.20
3850;DHT22;1940;51.052;13.678;2023-03-19T05:43:09;7.70;70.00
3850;DHT22;1940;51.052;13.678;2023-03-19T05:45:36;7.70;70.10
3850;DHT22;1940;51.052;13.678;2023-03-19T05:48:05;7.70;70.10
3850;DHT22;1940;51.052;13.678;2023-03-19T05:50:30;7.80;69.60
3850;DHT22;1940;51.052;13.678;2023-03-19T05:52:57;7.80;69.60
3850;DHT22;1940;51.052;13.678;2023-03-19T05:55:23;7.80;69.50
3850;DHT22;1940;51.052;13.678;2023-03-19T05:57:49;7.80;69.60
3850;DHT22;1940;51.052;13.678;2023-03-19T06:00:15;7.80;69.20
3850;DHT22;1940;51.052;13.678;2023-03-19T06:02:41;7.90;69.20
3850;DHT22;1940;51.052;13.678;2023-03-19T06:05:07;7.90;69.10
3850;DHT22;1940;51.052;13.678;2023-03-19T06:07:33;8.00;69.10
3850;DHT22;1940;51.052;13.678;2023-03-19T06:09:59;8.00;69.10
3850;DHT22;1940;51.052;13.678;2023-03-19T06:12:25;8.00;68.70
3850;DHT22;1940;51.052;13.678;2023-03-19T06:14:51;8.00;68.70
3850;DHT22;1940;51.052;13.678;2023-03-19T06:17:16;8.10;68.80
3850;DHT22;1940;51.052;13.678;2023-03-19T06:19:42;8.20;68.30
3850;DHT22;1940;51.052;13.678;2023-03-19T06:22:08;8.10;68.10
3850;DHT22;1940;51.052;13.678;2023-03-19T06:24:33;8.10;68.10
3850;DHT22;1940;51.052;13.678;2023-03-19T06:27:00;8.20;68.30
3850;DHT22;1940;51.052;13.678;2023-03-19T06:29:25;8.30;68.00
3850;DHT22;1940;51.052;13.678;2023-03-19T06:31:51;8.40;67.50
3850;DHT22;1940;51.052;13.678;2023-03-19T06:34:17;8.50;67.00
3850;DHT22;1940;51.052;13.678;2023-03-19T06:36:42;8.50;67.00
3850;DHT22;1940;51.052;13.678;2023-03-19T06:39:08;8.60;66.60
3850;DHT22;1940;51.052;13.678;2023-03-19T06:41:34;8.50;66.40
3850;DHT22;1940;51.052;13.678;2023-03-19T06:44:00;8.60;66.50
3850;DHT22;1940;51.052;13.678;2023-03-19T06:46:25;8.70;66.00
3850;DHT22;1940;51.052;13.678;2023-03-19T06:48:51;8.80;65.80
3850;DHT22;1940;51.052;13.678;2023-03-19T06:51:17;8.90;65.50
3850;DHT22;1940;51.052;13.678;2023-03-19T06:53:43;9.00;65.40
3850;DHT22;1940;51.052;13.678;2023-03-19T06:56:08;9.20;64.70
3850;DHT22;1940;51.052;13.678;2023-03-19T06:58:35;9.30;64.70
3850;DHT22;1940;51.052;13.678;2023-03-19T07:01:01;9.50;64.00
3850;DHT22;1940;51.052;13.678;2023-03-19T07:03:27;9.60;64.00
3850;DHT22;1940;51.052;13.678;2023-03-19T07:05:52;9.80;63.30
3850;DHT22;1940;51.052;13.678;2023-03-19T07:08:18;10.10;62.60
3850;DHT22;1940;51.052;13.678;2023-03-19T07:10:44;10.30;62.30
3850;DHT22;1940;51.052;13.678;2023-03-19T07:13:09;10.40;61.70
3850;DHT22;1940;51.052;13.678;2023-03-19T07:15:35;10.40;61.50
3850;DHT22;1940;51.052;13.678;2023-03-19T07:18:01;10.50;61.80
3850;DHT22;1940;51.052;13.678;2023-03-19T07:20:27;10.70;61.30
3850;DHT22;1940;51.052;13.678;2023-03-19T07:22:53;10.70;61.10
3850;DHT22;1940;51.052;13.678;2023-03-19T07:25:19;10.80;61.10
3850;DHT22;1940;51.052;13.678;2023-03-19T07:27:44;10.90;61.30
3850;DHT22;1940;51.052;13.678;2023-03-19T07:30:11;11.20;60.80
3850;DHT22;1940;51.052;13.678;2023-03-19T07:32:37;11.40;60.00
3850;DHT22;1940;51.052;13.678;2023-03-19T07:35:04;11.50;59.80
3850;DHT22;1940;51.052;13.678;2023-03-19T07:37:30;11.30;59.70
3850;DHT22;1940;51.052;13.678;2023-03-19T07:39:56;11.30;60.30
3850;DHT22;1940;51.052;13.678;2023-03-19T07:42:21;11.40;60.20
3850;DHT22;1940;51.052;13.678;2023-03-19T07:44:47;11.60;59.90
3850;DHT22;1940;51.052;13.678;2023-03-19T07:47:12;11.90;59.50
3850;DHT22;1940;51.052;13.678;2023-03-19T07:49:38;12.30;58.70
3850;DHT22;1940;51.052;13.678;2023-03-19T07:52:04;12.60;57.80
3850;DHT22;1940;51.052;13.678;2023-03-19T07:54:30;12.90;57.30
3850;DHT22;1940;51.052;13.678;2023-03-19T07:56:55;13.10;56.90
3850;DHT22;1940;51.052;13.678;2023-03-19T07:59:21;13.40;56.10
3850;DHT22;1940;51.052;13.678;2023-03-19T08:01:46;13.70;55.40
3850;DHT22;1940;51.052;13.678;2023-03-19T08:04:13;13.60;55.50
3850;DHT22;1940;51.052;13.678;2023-03-19T08:06:40;13.40;55.70
3850;DHT22;1940;51.052;13.678;2023-03-19T08:09:14;13.60;55.20
3850;DHT22;1940;51.052;13.678;2023-03-19T08:11:40;13.60;54.80
3850;DHT22;1940;51.052;13.678;2023-03-19T08:14:06;13.60;55.00
3850;DHT22;1940;51.052;13.678;2023-03-19T08:16:31;13.80;54.60
3850;DHT22;1940;51.052;13.678;2023-03-19T08:18:57;13.60;54.20
3850;DHT22;1940;51.052;13.678;2023-03-19T08:21:22;13.50;54.40
3850;DHT22;1940;51.052;13.678;2023-03-19T08:23:48;13.30;55.10
3850;DHT22;1940;51.052;13.678;2023-03-19T08:26:14;13.70;54.80
3850;DHT22;1940;51.052;13.678;2023-03-19T08:28:40;14.00;53.80
3850;DHT22;1940;51.052;13.678;2023-03-19T08:31:07;14.10;53.60
3850;DHT22;1940;51.052;13.678;2023-03-19T08:33:33;14.20;53.60
3850;DHT22;1940;51.052;13.678;2023-03-19T08:36:10;14.50;53.30
3850;DHT22;1940;51.052;13.678;2023-03-19T08:38:36;14.70;52.90
3850;DHT22;1940;51.052;13.678;2023-03-19T08:41:02;15.10;52.50
3850;DHT22;1940;51.052;13.678;2023-03-19T08:43:29;15.10;51.90
3850;DHT22;1940;51.052;13.678;2023-03-19T08:45:55;14.90;52.60
3850;DHT22;1940;51.052;13.678;2023-03-19T08:48:21;15.00;52.30
3850;DHT22;1940;51.052;13.678;2023-03-19T08:50:52;15.20;52.50
3850;DHT22;1940;51.052;13.678;2023-03-19T08:53:18;15.40;51.80
3850;DHT22;1940;51.052;13.678;2023-03-19T08:55:44;15.80;51.60
3850;DHT22;1940;51.052;13.678;2023-03-19T08:58:09;15.80;50.90
3850;DHT22;1940;51.052;13.678;2023-03-19T09:00:34;16.00;50.70
3850;DHT22;1940;51.052;13.678;2023-03-19T09:03:00;16.20;50.60
3850;DHT22;1940;51.052;13.678;2023-03-19T09:05:25;16.30;50.30
3850;DHT22;1940;51.052;13.678;2023-03-19T09:07:51;16.00;50.50
3850;DHT22;1940;51.052;13.678;2023-03-19T09:10:17;15.80;51.00
3850;DHT22;1940;51.052;13.678;2023-03-19T09:12:42;15.80;50.90
3850;DHT22;1940;51.052;13.678;2023-03-19T09:15:08;15.60;51.40
3850;DHT22;1940;51.052;13.678;2023-03-19T09:17:34;15.70;51.50
3850;DHT22;1940;51.052;13.678;2023-03-19T09:19:59;15.70;51.40
3850;DHT22;1940;51.052;13.678;2023-03-19T09:22:25;16.00;51.50
3850;DHT22;1940;51.052;13.678;2023-03-19T09:24:50;16.10;51.20
3850;DHT22;1940;51.052;13.678;2023-03-19T09:27:16;16.10;51.00
3850;DHT22;1940;51.052;13.678;2023-03-19T09:29:43;16.20;51.00
3850;DHT22;1940;51.052;13.678;2023-03-19T09:32:08;16.40;50.50
3850;DHT22;1940;51.052;13.678;2023-03-19T09:34:34;16.60;50.50
3850;DHT22;1940;51.052;13.678;2023-03-19T09:37:00;16.80;50.30
3850;DHT22;1940;51.052;13.678;2023-03-19T09:39:25;16.90;50.20
3850;DHT22;1940;51.052;13.678;2023-03-19T09:42:10;17.00;49.70
3850;DHT22;1940;51.052;13.678;2023-03-19T09:44:40;17.10;49.80
3850;DHT22;1940;51.052;13.678;2023-03-19T09:47:25;17.40;49.50
3850;DHT22;1940;51.052;13.678;2023-03-19T09:49:52;17.70;49.20
3850;DHT22;1940;51.052;13.678;2023-03-19T09:54:57;18.20;48.20
3850;DHT22;1940;51.052;13.678;2023-03-19T09:57:25;18.30;48.00
3850;DHT22;1940;51.052;13.678;2023-03-19T09:59:54;18.20;47.90
3850;DHT22;1940;51.052;13.678;2023-03-19T10:02:41;18.30;48.30
3850;DHT22;1940;51.052;13.678;2023-03-19T10:11:15;18.40;48.20
3850;DHT22;1940;51.052;13.678;2023-03-19T10:14:06;18.80;47.50
3850;DHT22;1940;51.052;13.678;2023-03-19T10:16:33;19.50;46.80
3850;DHT22;1940;51.052;13.678;2023-03-19T10:19:02;20.00;46.00
3850;DHT22;1940;51.052;13.678;2023-03-19T10:21:30;20.50;45.20
3850;DHT22;1940;51.052;13.678;2023-03-19T10:24:28;20.60;44.90
3850;DHT22;1940;51.052;13.678;2023-03-19T10:27:04;20.80;45.10
3850;DHT22;1940;51.052;13.678;2023-03-19T10:29:33;21.00;44.20
3850;DHT22;1940;51.052;13.678;2023-03-19T10:32:06;21.10;44.30
3850;DHT22;1940;51.052;13.678;2023-03-19T10:34:40;21.30;44.50
3850;DHT22;1940;51.052;13.678;2023-03-19T10:37:19;21.60;43.60
3850;DHT22;1940;51.052;13.678;2023-03-19T10:39:49;21.90;43.40
3850;DHT22;1940;51.052;13.678;2023-03-19T10:42:34;21.60;43.60
3850;DHT22;1940;51.052;13.678;2023-03-19T10:47:45;21.30;44.70
3850;DHT22;1940;51.052;13.678;2023-03-19T10:50:19;21.20;44.80
3850;DHT22;1940;51.052;13.678;2023-03-19T10:52:51;21.50;44.00
3850;DHT22;1940;51.052;13.678;2023-03-19T10:55:25;21.90;43.70
3850;DHT22;1940;51.052;13.678;2023-03-19T10:57:56;22.00;43.50
3850;DHT22;1940;51.052;13.678;2023-03-19T11:00:28;22.10;43.70
3850;DHT22;1940;51.052;13.678;2023-03-19T11:02:56;21.70;44.00
3850;DHT22;1940;51.052;13.678;2023-03-19T11:05:28;21.30;45.00
3850;DHT22;1940;51.052;13.678;2023-03-19T11:08:00;20.80;45.00
3850;DHT22;1940;51.052;13.678;2023-03-19T11:10:29;20.10;46.00
3850;DHT22;1940;51.052;13.678;2023-03-19T11:13:11;20.00;46.40
3850;DHT22;1940;51.052;13.678;2023-03-19T11:15:41;20.00;46.50
3850;DHT22;1940;51.052;13.678;2023-03-19T11:18:42;19.90;46.90
3850;DHT22;1940;51.052;13.678;2023-03-19T11:21:24;20.10;46.60
3850;DHT22;1940;51.052;13.678;2023-03-19T11:24:01;20.40;46.70
3850;DHT22;1940;51.052;13.678;2023-03-19T11:26:28;20.50;46.10
3850;DHT22;1940;51.052;13.678;2023-03-19T11:28:59;20.90;45.40
3850;DHT22;1940;51.052;13.678;2023-03-19T11:31:33;21.10;45.10
3850;DHT22;1940;51.052;13.678;2023-03-19T11:37:15;21.10;45.10
3850;DHT22;1940;51.052;13.678;2023-03-19T11:39:51;20.90;45.50
3850;DHT22;1940;51.052;13.678;2023-03-19T11:42:47;20.90;45.20
3850;DHT22;1940;51.052;13.678;2023-03-19T11:45:24;20.70;45.60
3850;DHT22;1940;51.052;13.678;2023-03-19T11:47:57;20.40;46.20
3850;DHT22;1940;51.052;13.678;2023-03-19T11:50:39;20.40;46.60
3850;DHT22;1940;51.052;13.678;2023-03-19T11:53:18;20.30;46.70
3850;DHT22;1940;51.052;13.678;2023-03-19T11:56:14;19.80;47.30
3850;DHT22;1940;51.052;13.678;2023-03-19T11:59:11;19.90;47.50
3850;DHT22;1940;51.052;13.678;2023-03-19T12:04:54;19.70;47.80
3850;DHT22;1940;51.052;13.678;2023-03-19T12:16:26;19.40;48.40
3850;DHT22;1940;51.052;13.678;2023-03-19T12:21:49;19.10;49.30
3850;DHT22;1940;51.052;13.678;2023-03-19T12:24:59;19.30;48.90
3850;DHT22;1940;51.052;13.678;2023-03-19T12:27:27;19.30;48.80
3850;DHT22;1940;51.052;13.678;2023-03-19T12:30:11;19.30;49.30
3850;DHT22;1940;51.052;13.678;2023-03-19T12:32:55;19.40;49.30
3850;DHT22;1940;51.052;13.678;2023-03-19T12:35:33;19.20;49.40
3850;DHT22;1940;51.052;13.678;2023-03-19T12:40:36;19.10;49.60
3850;DHT22;1940;51.052;13.678;2023-03-19T12:46:26;19.00;49.80
3850;DHT22;1940;51.052;13.678;2023-03-19T12:51:28;18.90;49.90
3850;DHT22;1940;51.052;13.678;2023-03-19T12:57:00;19.00;50.20
3850;DHT22;1940;51.052;13.678;2023-03-19T13:05:28;18.80;50.00
3850;DHT22;1940;51.052;13.678;2023-03-19T13:10:37;18.60;50.80
3850;DHT22;1940;51.052;13.678;2023-03-19T13:15:59;18.10;51.00
3850;DHT22;1940;51.052;13.678;2023-03-19T13:18:56;17.90;51.70
3850;DHT22;1940;51.052;13.678;2023-03-19T13:21:27;17.70;52.00
3850;DHT22;1940;51.052;13.678;2023-03-19T13:24:18;17.60;52.50
3850;DHT22;1940;51.052;13.678;2023-03-19T13:26:46;17.50;52.70
3850;DHT22;1940;51.052;13.678;2023-03-19T13:31:43;17.70;52.70
3850;DHT22;1940;51.052;13.678;2023-03-19T13:36:44;17.80;53.00
3850;DHT22;1940;51.052;13.678;2023-03-19T13:39:14;18.00;52.90
3850;DHT22;1940;51.052;13.678;2023-03-19T13:44:42;17.90;52.30
3850;DHT22;1940;51.052;13.678;2023-03-19T14:03:22;17.70;53.50
3850;DHT22;1940;51.052;13.678;2023-03-19T14:05:49;17.60;53.70
3850;DHT22;1940;51.052;13.678;2023-03-19T14:08:41;17.70;53.80
3850;DHT22;1940;51.052;13.678;2023-03-19T14:11:08;17.60;53.90
3850;DHT22;1940;51.052;13.678;2023-03-19T14:13:39;17.60;53.80
3850;DHT22;1940;51.052;13.678;2023-03-19T14:16:23;17.50;53.90
3850;DHT22;1940;51.052;13.678;2023-03-19T14:18:50;17.60;54.00
3850;DHT22;1940;51.052;13.678;2023-03-19T14:21:41;17.60;54.00
3850;DHT22;1940;51.052;13.678;2023-03-19T14:27:20;17.50;54.30
3850;DHT22;1940;51.052;13.678;2023-03-19T14:29:47;17.50;54.50
3850;DHT22;1940;51.052;13.678;2023-03-19T14:32:18;17.50;54.50
3850;DHT22;1940;51.052;13.678;2023-03-19T14:34:47;17.40;54.70
3850;DHT22;1940;51.052;13.678;2023-03-19T14:37:31;17.40;54.90
3850;DHT22;1940;51.052;13.678;2023-03-19T14:40:19;17.50;54.90
3850;DHT22;1940;51.052;13.678;2023-03-19T14:43:09;17.60;54.90
3850;DHT22;1940;51.052;13.678;2023-03-19T14:45:57;17.70;54.50
3850;DHT22;1940;51.052;13.678;2023-03-19T14:49:03;17.60;54.80
3850;DHT22;1940;51.052;13.678;2023-03-19T14:52:06;17.70;54.60
3850;DHT22;1940;51.052;13.678;2023-03-19T14:54:52;17.90;54.30
3850;DHT22;1940;51.052;13.678;2023-03-19T14:57:27;18.00;54.80
3850;DHT22;1940;51.052;13.678;2023-03-19T14:59:54;18.10;54.20
3850;DHT22;1940;51.052;13.678;2023-03-19T15:02:40;18.10;54.10
3850;DHT22;1940;51.052;13.678;2023-03-19T15:05:31;18.10;54.10
3850;DHT22;1940;51.052;13.678;2023-03-19T15:08:00;18.20;54.10
3850;DHT22;1940;51.052;13.678;2023-03-19T15:10:29;18.20;54.00
3850;DHT22;1940;51.052;13.678;2023-03-19T15:18:25;18.10;55.20
3850;DHT22;1940;51.052;13.678;2023-03-19T15:20:52;17.90;58.40
3850;DHT22;1940;51.052;13.678;2023-03-19T15:23:24;17.50;63.60
3850;DHT22;1940;51.052;13.678;2023-03-19T15:25:53;17.10;63.90
3850;DHT22;1940;51.052;13.678;2023-03-19T15:28:24;17.00;62.50
3850;DHT22;1940;51.052;13.678;2023-03-19T15:30:58;16.70;66.60
3850;DHT22;1940;51.052;13.678;2023-03-19T15:33:31;16.60;67.30
3850;DHT22;1940;51.052;13.678;2023-03-19T15:38:47;16.40;69.10
3850;DHT22;1940;51.052;13.678;2023-03-19T15:41:13;16.30;69.70
3850;DHT22;1940;51.052;13.678;2023-03-19T15:43:40;16.20;69.90
3850;DHT22;1940;51.052;13.678;2023-03-19T15:46:10;16.10;70.00
3850;DHT22;1940;51.052;13.678;2023-03-19T15:48:50;15.90;70.50
3850;DHT22;1940;51.052;13.678;2023-03-19T15:51:17;15.90;71.00
3850;DHT22;1940;51.052;13.678;2023-03-19T15:53:44;15.70;71.30
3850;DHT22;1940;51.052;13.678;2023-03-19T15:56:12;15.60;72.00
3850;DHT22;1940;51.052;13.678;2023-03-19T15:58:43;15.60;72.20
3850;DHT22;1940;51.052;13.678;2023-03-19T16:01:10;15.30;72.70
3850;DHT22;1940;51.052;13.678;2023-03-19T16:03:39;15.30;73.00
3850;DHT22;1940;51.052;13.678;2023-03-19T16:06:25;15.30;73.60
3850;DHT22;1940;51.052;13.678;2023-03-19T16:08:53;15.30;73.80
3850;DHT22;1940;51.052;13.678;2023-03-19T16:11:41;15.30;74.20
3850;DHT22;1940;51.052;13.678;2023-03-19T16:16:40;15.40;74.70
3850;DHT22;1940;51.052;13.678;2023-03-19T16:19:35;15.40;75.20
3850;DHT22;1940;51.052;13.678;2023-03-19T16:22:13;15.20;75.70
3850;DHT22;1940;51.052;13.678;2023-03-19T16:24:41;15.10;76.30
3850;DHT22;1940;51.052;13.678;2023-03-19T16:27:12;15.00;77.40
3850;DHT22;1940;51.052;13.678;2023-03-19T16:29:46;14.90;77.60
3850;DHT22;1940;51.052;13.678;2023-03-19T16:32:23;14.70;78.10
3850;DHT22;1940;51.052;13.678;2023-03-19T16:35:14;14.50;78.60
3850;DHT22;1940;51.052;13.678;2023-03-19T16:37:51;14.40;79.10
3850;DHT22;1940;51.052;13.678;2023-03-19T16:42:46;14.20;79.50
3850;DHT22;1940;51.052;13.678;2023-03-19T16:45:32;14.20;79.70
3850;DHT22;1940;51.052;13.678;2023-03-19T16:48:01;14.30;79.80
3850;DHT22;1940;51.052;13.678;2023-03-19T16:50:32;14.30;79.70
3850;DHT22;1940;51.052;13.678;2023-03-19T16:52:58;14.30;79.60
3850;DHT22;1940;51.052;13.678;2023-03-19T16:55:26;14.30;79.80
3850;DHT22;1940;51.052;13.678;2023-03-19T16:57:57;14.40;79.90
3850;DHT22;1940;51.052;13.678;2023-03-19T17:00:24;14.30;80.40
3850;DHT22;1940;51.052;13.678;2023-03-19T17:02:54;14.40;80.50
3850;DHT22;1940;51.052;13.678;2023-03-19T17:05:20;14.20;81.00
3850;DHT22;1940;51.052;13.678;2023-03-19T17:07:46;14.10;81.30
3850;DHT22;1940;51.052;13.678;2023-03-19T17:10:17;14.10;81.30
3850;DHT22;1940;51.052;13.678;2023-03-19T17:12:44;13.90;80.90
3850;DHT22;1940;51.052;13.678;2023-03-19T17:15:21;13.90;80.70
3850;DHT22;1940;51.052;13.678;2023-03-19T17:17:47;13.80;80.90
3850;DHT22;1940;51.052;13.678;2023-03-19T17:20:18;13.80;81.10
3850;DHT22;1940;51.052;13.678;2023-03-19T17:22:45;13.80;81.00
3850;DHT22;1940;51.052;13.678;2023-03-19T17:25:13;13.80;80.50
3850;DHT22;1940;51.052;13.678;2023-03-19T17:27:42;13.70;80.70
3850;DHT22;1940;51.052;13.678;2023-03-19T17:30:09;13.60;80.80
3850;DHT22;1940;51.052;13.678;2023-03-19T17:32:35;13.60;81.00
3850;DHT22;1940;51.052;13.678;2023-03-19T17:35:01;13.50;80.70
3850;DHT22;1940;51.052;13.678;2023-03-19T17:37:29;13.50;80.80
3850;DHT22;1940;51.052;13.678;2023-03-19T17:39:55;13.50;80.80
3850;DHT22;1940;51.052;13.678;2023-03-19T17:42:22;13.40;81.20
3850;DHT22;1940;51.052;13.678;2023-03-19T17:44:49;13.40;81.60